createdAt,value
2023-03-31T00:01:52.658Z,100.00
2023-03-31T00:04:24.128Z,100.00
2023-03-31T00:06:54.034Z,100.00
2023-03-31T00:09:24.265Z,100.00
2023-03-31T00:11:51.442Z,100.00
2023-03-31T00:14:20.730Z,100.00
2023-03-31T00:16:47.249Z,100.00
2023-03-31T00:19:21.136Z,100.00
2023-03-31T00:21:48.665Z,100.00
2023-03-31T00:24:16.200Z,100.00
2023-03-31T00:26:43.628Z,100.00
2023-03-31T00:29:12.670Z,100.00
2023-03-31T00:31:39.227Z,100.00
2023-03-31T00:34:06.172Z,100.00
2023-03-31T00:36:36.448Z,100.00
2023-03-31T00:39:08.205Z,100.00
2023-03-31T00:41:36.688Z,100.00
2023-03-31T00:44:27.803Z,100.00
2023-03-31T00:47:09.759Z,100.00
2023-03-31T00:49:46.325Z,100.00
2023-03-31T00:52:21.410Z,100.00
2023-03-31T00:54:51.426Z,100.00
2023-03-31T00:57:18.009Z,100.00
2023-03-31T00:59:50.813Z,100.00
2023-03-31T01:02:20.535Z,100.00
2023-03-31T01:04:54.753Z,100.00
2023-03-31T01:07:30.912Z,100.00
2023-03-31T01:10:00.158Z,100.00
2023-03-31T01:12:27.366Z,100.00
2023-03-31T01:14:55.291Z,100.00
2023-03-31T01:17:22.670Z,100.00
2023-03-31T01:20:14.574Z,100.00
2023-03-31T01:23:14.915Z,100.00
2023-03-31T01:26:15.658Z,100.00
2023-03-31T01:28:59.799Z,100.00
2023-03-31T01:31:57.048Z,100.00
2023-03-31T01:35:03.957Z,100.00
2023-03-31T01:38:04.919Z,100.00
2023-03-31T01:40:59.572Z,100.00
2023-03-31T01:44:06.431Z,100.00
2023-03-31T01:46:39.007Z,100.00
2023-03-31T01:49:39.347Z,100.00
2023-03-31T01:52:19.663Z,100.00
2023-03-31T01:54:53.348Z,100.00
2023-03-31T01:57:36.943Z,100.00
2023-03-31T02:00:15.581Z,100.00
2023-03-31T02:03:05.332Z,100.00
2023-03-31T02:05:38.097Z,100.00
2023-03-31T02:08:10.971Z,100.00
2023-03-31T02:10:41.235Z,100.00
2023-03-31T02:13:11.262Z,100.00
2023-03-31T02:15:42.344Z,100.00
2023-03-31T02:18:13.652Z,100.00
2023-03-31T02:20:42.887Z,100.00
2023-03-31T02:23:12.392Z,100.00
2023-03-31T02:25:47.043Z,100.00
2023-03-31T02:28:22.235Z,100.00
2023-03-31T02:31:14.278Z,100.00
2023-03-31T02:33:40.720Z,100.00
2023-03-31T02:36:07.719Z,100.00
2023-03-31T02:38:40.627Z,100.00
2023-03-31T02:41:08.269Z,100.00
2023-03-31T02:43:34.673Z,100.00
2023-03-31T02:46:01.249Z,100.00
2023-03-31T02:48:31.115Z,100.00
2023-03-31T02:51:01.717Z,100.00
2023-03-31T02:53:39.542Z,100.00
2023-03-31T02:56:28.022Z,100.00
2023-03-31T02:59:06.851Z,100.00
2023-03-31T03:01:43.639Z,100.00
2023-03-31T03:04:35.193Z,100.00
2023-03-31T03:07:14.328Z,100.00
2023-03-31T03:09:59.576Z,100.00
2023-03-31T03:12:34.398Z,100.00
2023-03-31T03:15:25.714Z,100.00
2023-03-31T03:17:53.583Z,100.00
2023-03-31T03:20:21.671Z,100.00
2023-03-31T03:22:48.085Z,100.00
2023-03-31T03:25:17.213Z,100.00
2023-03-31T03:27:44.092Z,100.00
2023-03-31T03:30:12.437Z,100.00
2023-03-31T03:32:39.216Z,100.00
2023-03-31T03:35:07.086Z,100.00
2023-03-31T03:37:33.902Z,100.00
2023-03-31T03:40:00.442Z,100.00
2023-03-31T03:42:26.808Z,100.00
2023-03-31T03:44:53.266Z,100.00
2023-03-31T03:47:19.622Z,100.00
2023-03-31T03:49:46.037Z,100.00
2023-03-31T03:52:12.454Z,100.00
2023-03-31T03:54:38.842Z,100.00
2023-03-31T03:57:05.242Z,100.00
2023-03-31T03:59:31.637Z,100.00
2023-03-31T04:01:58.030Z,100.00
2023-03-31T04:04:24.422Z,100.00
2023-03-31T04:06:50.843Z,100.00
2023-03-31T04:09:17.326Z,100.00
2023-03-31T04:11:43.687Z,100.00
2023-03-31T04:14:10.180Z,100.00
2023-03-31T04:16:36.593Z,100.00
2023-03-31T04:19:04.862Z,100.00
2023-03-31T04:21:34.815Z,100.00
2023-03-31T04:24:04.426Z,100.00
2023-03-31T04:26:42.729Z,100.00
2023-03-31T04:29:14.098Z,100.00
2023-03-31T04:31:44.052Z,100.00
2023-03-31T04:34:13.490Z,100.00
2023-03-31T04:36:49.261Z,100.00
2023-03-31T04:39:30.611Z,100.00
2023-03-31T04:41:58.365Z,100.00
2023-03-31T04:44:25.270Z,100.00
2023-03-31T04:46:51.655Z,100.00
2023-03-31T04:49:18.034Z,100.00
2023-03-31T04:51:44.913Z,100.00
2023-03-31T04:54:11.349Z,100.00
2023-03-31T04:56:37.767Z,100.00
2023-03-31T04:59:04.174Z,100.00
2023-03-31T05:01:36.313Z,100.00
2023-03-31T05:04:04.639Z,100.00
2023-03-31T05:06:31.140Z,100.00
2023-03-31T05:08:57.538Z,100.00
2023-03-31T05:11:23.970Z,100.00
2023-03-31T05:13:50.643Z,100.00
2023-03-31T05:16:17.348Z,100.00
2023-03-31T05:18:44.698Z,100.00
2023-03-31T05:21:17.394Z,100.00
2023-03-31T05:23:44.733Z,100.00
2023-03-31T05:26:11.923Z,100.00
2023-03-31T05:28:38.429Z,100.00
2023-03-31T05:31:06.485Z,100.00
2023-03-31T05:33:33.271Z,100.00
2023-03-31T05:36:02.657Z,100.00
2023-03-31T05:38:31.232Z,100.00
2023-03-31T05:40:57.620Z,100.00
2023-03-31T05:43:24.122Z,100.00
2023-03-31T05:45:50.660Z,100.00
2023-03-31T05:48:17.083Z,100.00
2023-03-31T05:50:44.059Z,100.00
2023-03-31T05:53:10.508Z,100.00
2023-03-31T05:55:37.716Z,100.00
2023-03-31T05:58:04.166Z,100.00
2023-03-31T06:00:31.525Z,100.00
2023-03-31T06:02:59.183Z,100.00
2023-03-31T06:05:30.993Z,100.00
2023-03-31T06:07:57.455Z,100.00
2023-03-31T06:10:23.795Z,100.00
2023-03-31T06:12:50.164Z,100.00
2023-03-31T06:15:17.091Z,100.00
2023-03-31T06:17:43.542Z,100.00
2023-03-31T06:20:20.114Z,100.00
2023-03-31T06:22:50.952Z,100.00
2023-03-31T06:25:17.415Z,100.00
2023-03-31T06:27:43.766Z,100.00
2023-03-31T06:30:10.482Z,100.00
2023-03-31T06:32:36.984Z,100.00
2023-03-31T06:35:03.460Z,100.00
2023-03-31T06:37:29.885Z,100.00
2023-03-31T06:39:56.280Z,100.00
2023-03-31T06:42:22.669Z,100.00
2023-03-31T06:44:49.052Z,100.00
2023-03-31T06:47:15.586Z,100.00
2023-03-31T06:49:42.003Z,100.00
2023-03-31T06:52:08.419Z,100.00
2023-03-31T06:54:34.782Z,100.00
2023-03-31T06:57:01.167Z,100.00
2023-03-31T06:59:27.541Z,100.00
2023-03-31T07:01:54.015Z,100.00
2023-03-31T07:04:20.678Z,100.00
2023-03-31T07:06:47.024Z,100.00
2023-03-31T07:09:13.374Z,100.00
2023-03-31T07:11:39.801Z,100.00
2023-03-31T07:14:06.164Z,100.00
2023-03-31T07:16:32.747Z,100.00
2023-03-31T07:18:59.559Z,100.00
2023-03-31T07:21:26.414Z,100.00
2023-03-31T07:23:52.768Z,100.00
2023-03-31T07:26:19.163Z,100.00
2023-03-31T07:28:45.604Z,100.00
2023-03-31T07:31:13.509Z,100.00
2023-03-31T07:33:40.415Z,100.00
2023-03-31T07:36:12.558Z,100.00
2023-03-31T07:38:42.923Z,100.00
2023-03-31T07:41:13.881Z,100.00
2023-03-31T07:43:40.937Z,100.00
2023-03-31T07:46:08.470Z,100.00
2023-03-31T07:48:35.269Z,100.00
2023-03-31T07:51:01.702Z,100.00
2023-03-31T07:53:28.124Z,100.00
2023-03-31T07:55:54.466Z,100.00
2023-03-31T07:58:20.865Z,100.00
2023-03-31T08:00:47.231Z,100.00
2023-03-31T08:03:14.720Z,100.00
2023-03-31T08:05:41.149Z,100.00
2023-03-31T08:08:07.510Z,100.00
2023-03-31T08:10:33.975Z,100.00
2023-03-31T08:13:00.354Z,99.10
2023-03-31T08:15:26.705Z,100.00
2023-03-31T08:17:53.107Z,100.00
2023-03-31T08:20:19.541Z,100.00
2023-03-31T08:22:46.080Z,100.00
2023-03-31T08:25:12.430Z,100.00
2023-03-31T08:27:40.585Z,100.00
2023-03-31T08:30:09.155Z,100.00
2023-03-31T08:32:35.904Z,100.00
2023-03-31T08:35:02.484Z,100.00
2023-03-31T08:37:28.954Z,100.00
2023-03-31T08:39:55.876Z,100.00
2023-03-31T08:42:34.461Z,100.00
2023-03-31T08:45:19.707Z,100.00
2023-03-31T08:47:48.991Z,100.00
2023-03-31T08:50:18.885Z,100.00
2023-03-31T08:52:54.958Z,100.00
2023-03-31T08:55:29.204Z,100.00
2023-03-31T08:58:05.696Z,100.00
2023-03-31T09:00:49.334Z,100.00
2023-03-31T09:03:43.012Z,100.00
2023-03-31T09:06:18.162Z,98.63
2023-03-31T09:08:44.848Z,96.37
2023-03-31T09:11:27.995Z,91.41
2023-03-31T09:14:00.472Z,96.13
2023-03-31T09:16:35.431Z,97.95
2023-03-31T09:19:02.795Z,91.60
2023-03-31T09:21:33.961Z,92.13
2023-03-31T09:24:28.664Z,95.70
2023-03-31T09:27:00.692Z,94.97
2023-03-31T09:29:52.083Z,96.62
2023-03-31T09:32:24.897Z,97.81
2023-03-31T09:34:57.124Z,99.74
2023-03-31T09:37:27.169Z,100.00
2023-03-31T09:39:53.712Z,100.00
2023-03-31T09:42:20.310Z,100.00
2023-03-31T09:44:49.913Z,100.00
2023-03-31T09:47:42.649Z,100.00
2023-03-31T09:50:11.332Z,100.00
2023-03-31T09:52:43.863Z,100.00
2023-03-31T09:55:38.763Z,100.00
2023-03-31T09:58:07.615Z,100.00
2023-03-31T10:00:34.913Z,100.00
2023-03-31T10:03:07.315Z,100.00
2023-03-31T10:05:43.209Z,100.00
2023-03-31T10:08:20.120Z,99.45
2023-03-31T10:11:06.949Z,100.00
2023-03-31T10:13:45.847Z,100.00
2023-03-31T10:16:20.973Z,99.26
2023-03-31T10:18:47.397Z,97.55
2023-03-31T10:21:28.061Z,98.09
2023-03-31T10:23:55.200Z,99.14
2023-03-31T10:26:28.171Z,97.61
2023-03-31T10:28:55.507Z,98.73
2023-03-31T10:31:26.974Z,99.37
2023-03-31T10:33:54.579Z,100.00
2023-03-31T10:36:28.979Z,100.00
2023-03-31T10:38:56.580Z,100.00
2023-03-31T10:41:26.294Z,100.00
2023-03-31T10:43:55.335Z,97.37
2023-03-31T10:46:39.380Z,98.13
2023-03-31T10:49:21.096Z,94.06
2023-03-31T10:51:58.970Z,94.50
2023-03-31T10:54:26.581Z,96.30
2023-03-31T10:56:56.588Z,94.75
2023-03-31T10:59:59.616Z,95.72
2023-03-31T11:03:02.566Z,96.59
2023-03-31T11:05:44.268Z,94.99
2023-03-31T11:08:30.400Z,93.77
2023-03-31T11:11:17.011Z,96.96
2023-03-31T11:14:40.715Z,94.00
2023-03-31T11:17:18.851Z,90.87
2023-03-31T11:20:05.552Z,89.64
2023-03-31T11:22:37.568Z,87.86
2023-03-31T11:25:21.968Z,87.19
2023-03-31T11:28:05.702Z,89.41
2023-03-31T11:30:39.877Z,85.31
2023-03-31T11:33:40.259Z,85.61
2023-03-31T11:36:26.084Z,83.57
2023-03-31T11:39:15.977Z,83.11
2023-03-31T11:42:03.718Z,83.16
2023-03-31T11:44:40.334Z,84.58
2023-03-31T11:47:13.694Z,83.37
2023-03-31T11:49:47.009Z,83.38
2023-03-31T11:52:19.093Z,80.06
2023-03-31T11:55:04.873Z,82.42
2023-03-31T11:57:45.638Z,83.12
2023-03-31T12:00:23.144Z,85.78
2023-03-31T12:03:28.665Z,81.26
2023-03-31T12:06:04.424Z,81.39
2023-03-31T12:08:38.932Z,85.62
2023-03-31T12:11:11.219Z,83.51
2023-03-31T12:13:51.278Z,83.74
2023-03-31T12:16:25.885Z,83.40
2023-03-31T12:19:03.119Z,83.01
2023-03-31T12:21:32.086Z,81.05
2023-03-31T12:23:58.511Z,82.19
2023-03-31T12:26:49.342Z,81.42
2023-03-31T12:29:42.322Z,80.06
2023-03-31T12:32:17.283Z,79.82
2023-03-31T12:34:58.836Z,79.19
2023-03-31T12:37:47.275Z,80.71
2023-03-31T12:40:25.859Z,83.10
2023-03-31T12:43:21.656Z,82.52
2023-03-31T12:45:57.066Z,87.94
2023-03-31T12:48:49.419Z,88.38
2023-03-31T12:51:24.192Z,90.31
2023-03-31T12:54:20.527Z,90.89
2023-03-31T12:57:03.353Z,93.84
2023-03-31T12:59:37.041Z,99.42
2023-03-31T13:02:09.606Z,97.98
2023-03-31T13:04:38.016Z,100.00
2023-03-31T13:07:17.368Z,100.00
2023-03-31T13:10:19.090Z,96.88
2023-03-31T13:13:13.195Z,92.92
2023-03-31T13:15:39.904Z,94.14
2023-03-31T13:18:07.819Z,90.14
2023-03-31T13:20:42.007Z,90.19
2023-03-31T13:23:22.665Z,88.93
2023-03-31T13:25:53.633Z,89.08
2023-03-31T13:28:22.727Z,91.43
2023-03-31T13:30:53.482Z,89.11
2023-03-31T13:33:57.171Z,93.97
2023-03-31T13:36:41.716Z,99.42
2023-03-31T13:39:26.327Z,100.00
2023-03-31T13:42:22.806Z,95.28
2023-03-31T13:44:52.487Z,95.42
2023-03-31T13:48:00.525Z,93.09
2023-03-31T13:50:45.342Z,91.51
2023-03-31T13:53:39.440Z,88.20
2023-03-31T13:56:51.742Z,85.63
2023-03-31T13:59:37.630Z,84.10
2023-03-31T14:02:28.890Z,82.36
2023-03-31T14:05:08.952Z,81.17
2023-03-31T14:07:49.660Z,81.22
2023-03-31T14:10:37.796Z,82.80
2023-03-31T14:13:06.298Z,80.23
2023-03-31T14:15:33.977Z,81.78
2023-03-31T14:18:00.409Z,80.01
2023-03-31T14:20:41.634Z,79.24
2023-03-31T14:23:07.981Z,76.90
2023-03-31T14:25:58.891Z,73.49
2023-03-31T14:28:41.593Z,72.91
2023-03-31T14:31:26.568Z,74.89
2023-03-31T14:34:17.118Z,74.74
2023-03-31T14:36:52.686Z,76.68
2023-03-31T14:39:22.949Z,74.87
2023-03-31T14:41:54.119Z,76.57
2023-03-31T14:44:20.524Z,78.41
2023-03-31T14:46:47.257Z,79.88
2023-03-31T14:49:28.725Z,79.87
2023-03-31T14:52:01.310Z,78.19
2023-03-31T14:54:27.712Z,79.62
2023-03-31T14:56:58.279Z,78.38
2023-03-31T14:59:35.765Z,76.15
2023-03-31T15:02:05.130Z,76.35
2023-03-31T15:04:44.631Z,77.54
2023-03-31T15:07:12.434Z,76.37
2023-03-31T15:09:38.929Z,76.67
2023-03-31T15:12:13.605Z,81.19
2023-03-31T15:14:48.887Z,78.33
2023-03-31T15:17:42.574Z,78.41
2023-03-31T15:20:24.842Z,80.36
2023-03-31T15:22:51.483Z,81.67
2023-03-31T15:25:18.813Z,77.72
2023-03-31T15:27:49.526Z,78.80
2023-03-31T15:30:23.470Z,77.36
2023-03-31T15:32:50.171Z,77.00
2023-03-31T15:35:22.428Z,77.09
2023-03-31T15:37:52.188Z,77.11
2023-03-31T15:40:31.277Z,77.34
2023-03-31T15:45:52.183Z,80.52
2023-03-31T15:48:28.796Z,78.59
2023-03-31T15:51:07.121Z,78.44
2023-03-31T15:53:43.551Z,80.63
2023-03-31T15:56:25.407Z,88.18
2023-03-31T15:59:04.281Z,91.97
2023-03-31T16:01:34.297Z,94.08
2023-03-31T16:04:06.352Z,98.63
2023-03-31T16:06:50.167Z,99.93
2023-03-31T16:09:19.832Z,100.00
2023-03-31T16:11:54.818Z,100.00
2023-03-31T16:14:26.474Z,100.00
2023-03-31T16:16:59.210Z,100.00
2023-03-31T16:19:31.040Z,100.00
2023-03-31T16:22:01.941Z,100.00
2023-03-31T16:24:32.056Z,100.00
2023-03-31T16:27:06.102Z,100.00
2023-03-31T16:29:34.456Z,100.00
2023-03-31T16:32:18.905Z,100.00
2023-03-31T16:34:58.425Z,100.00
2023-03-31T16:37:25.749Z,100.00
2023-03-31T16:39:52.499Z,98.96
2023-03-31T16:42:19.978Z,98.42
2023-03-31T16:44:52.855Z,98.45
2023-03-31T16:47:35.071Z,96.37
2023-03-31T16:50:07.006Z,92.48
2023-03-31T16:52:33.434Z,94.79
2023-03-31T16:54:59.823Z,93.17
2023-03-31T16:57:26.246Z,94.08
2023-03-31T16:59:52.630Z,90.82
2023-03-31T17:02:18.981Z,88.92
2023-03-31T17:04:45.366Z,90.76
2023-03-31T17:07:11.802Z,90.62
2023-03-31T17:09:38.165Z,91.23
2023-03-31T17:12:04.780Z,88.75
2023-03-31T17:14:31.328Z,90.72
2023-03-31T17:16:57.736Z,90.62
2023-03-31T17:19:27.041Z,90.96
2023-03-31T17:21:53.461Z,90.83
2023-03-31T17:24:19.823Z,91.21
2023-03-31T17:26:46.358Z,91.97
2023-03-31T17:29:14.682Z,91.51
2023-03-31T17:31:41.968Z,89.62
2023-03-31T17:34:08.626Z,89.88
2023-03-31T17:36:35.032Z,92.66
2023-03-31T17:39:02.536Z,93.00
2023-03-31T17:41:29.836Z,93.45
2023-03-31T17:43:56.417Z,90.06
2023-03-31T17:46:23.051Z,89.12
2023-03-31T17:48:49.708Z,89.99
2023-03-31T17:51:18.250Z,90.57
2023-03-31T17:53:46.884Z,89.12
2023-03-31T17:56:14.375Z,90.25
2023-03-31T17:58:41.361Z,90.20
2023-03-31T18:01:09.265Z,89.14
2023-03-31T18:03:36.558Z,88.28
2023-03-31T18:06:08.169Z,88.62
2023-03-31T18:08:36.024Z,88.05
2023-03-31T18:11:04.948Z,89.09
2023-03-31T18:13:32.466Z,88.88
2023-03-31T18:15:58.922Z,88.41
2023-03-31T18:18:28.123Z,87.38
2023-03-31T18:20:55.790Z,86.50
2023-03-31T18:23:22.866Z,87.37
2023-03-31T18:25:49.294Z,85.71
2023-03-31T18:28:17.409Z,86.08
2023-03-31T18:30:43.959Z,86.74
2023-03-31T18:33:11.051Z,86.88
2023-03-31T18:35:37.920Z,87.46
2023-03-31T18:38:04.562Z,88.28
2023-03-31T18:40:30.967Z,88.60
2023-03-31T18:42:57.379Z,88.26
2023-03-31T18:45:24.032Z,89.18
2023-03-31T18:47:50.779Z,90.30
2023-03-31T18:50:17.384Z,91.80
2023-03-31T18:52:43.740Z,92.99
2023-03-31T18:55:10.187Z,93.21
2023-03-31T18:57:36.573Z,93.42
2023-03-31T19:00:03.654Z,94.61
2023-03-31T19:02:30.454Z,96.61
2023-03-31T19:04:56.965Z,97.68
2023-03-31T19:07:23.322Z,98.79
2023-03-31T19:09:49.722Z,98.07
2023-03-31T19:12:16.517Z,97.26
2023-03-31T19:14:43.941Z,98.21
2023-03-31T19:17:11.599Z,99.72
2023-03-31T19:19:38.008Z,99.44
2023-03-31T19:22:05.023Z,100.00
2023-03-31T19:24:31.601Z,100.00
2023-03-31T19:26:58.414Z,99.58
2023-03-31T19:29:24.911Z,97.77
2023-03-31T19:31:51.836Z,99.15
2023-03-31T19:34:18.242Z,99.29
2023-03-31T19:36:44.598Z,99.13
2023-03-31T19:39:11.561Z,99.00
2023-03-31T19:41:37.976Z,99.55
2023-03-31T19:44:04.419Z,98.52
2023-03-31T19:46:31.333Z,97.43
2023-03-31T19:48:57.787Z,99.14
2023-03-31T19:51:24.276Z,98.64
2023-03-31T19:53:50.688Z,98.27
2023-03-31T19:56:18.030Z,99.32
2023-03-31T19:58:44.868Z,99.55
2023-03-31T20:01:19.241Z,98.27
2023-03-31T20:03:46.094Z,97.73
2023-03-31T20:06:14.597Z,96.26
2023-03-31T20:08:42.522Z,94.41
2023-03-31T20:11:11.977Z,94.95
2023-03-31T20:13:39.433Z,95.21
2023-03-31T20:16:09.180Z,95.25
2023-03-31T20:18:37.137Z,95.09
2023-03-31T20:21:07.965Z,94.25
2023-03-31T20:23:34.750Z,93.07
2023-03-31T20:26:01.248Z,92.80
2023-03-31T20:28:28.814Z,91.49
2023-03-31T20:30:56.259Z,91.00
2023-03-31T20:33:23.855Z,89.88
2023-03-31T20:36:04.704Z,89.42
2023-03-31T20:38:31.141Z,90.74
2023-03-31T20:40:57.834Z,89.45
2023-03-31T20:43:24.913Z,90.45
2023-03-31T20:46:05.242Z,91.06
2023-03-31T20:48:37.570Z,91.58
2023-03-31T20:51:09.094Z,91.04
2023-03-31T20:53:45.377Z,90.80
2023-03-31T20:56:14.700Z,92.92
2023-03-31T20:58:43.954Z,92.19
2023-03-31T21:01:12.185Z,91.47
2023-03-31T21:03:38.851Z,91.82
2023-03-31T21:06:11.262Z,92.20
2023-03-31T21:08:39.492Z,92.82
2023-03-31T21:11:06.423Z,92.38
2023-03-31T21:13:33.294Z,92.06
2023-03-31T21:16:00.693Z,92.77
2023-03-31T21:18:29.285Z,92.61
2023-03-31T21:21:03.208Z,93.31
2023-03-31T21:23:30.031Z,92.66
2023-03-31T21:25:59.358Z,93.86
2023-03-31T21:28:28.283Z,94.27
2023-03-31T21:31:06.702Z,93.51
2023-03-31T21:33:33.911Z,93.53
2023-03-31T21:36:00.376Z,93.26
2023-03-31T21:38:28.501Z,93.97
2023-03-31T21:40:58.074Z,93.54
2023-03-31T21:43:25.838Z,94.48
2023-03-31T21:45:53.389Z,94.87
2023-03-31T21:48:25.063Z,94.83
2023-03-31T21:50:54.425Z,95.25
2023-03-31T21:53:24.588Z,94.11
2023-03-31T21:55:52.656Z,96.02
2023-03-31T21:58:19.393Z,94.60
2023-03-31T22:00:46.511Z,95.57
2023-03-31T22:05:43.274Z,96.21
2023-03-31T22:08:09.767Z,95.39
2023-03-31T22:10:36.731Z,93.90
2023-03-31T22:13:03.282Z,94.45
2023-03-31T22:15:29.734Z,94.46
2023-03-31T22:17:56.587Z,94.17
2023-03-31T22:20:23.246Z,94.01
2023-03-31T22:22:49.956Z,95.06
2023-03-31T22:25:16.372Z,94.94
2023-03-31T22:27:42.744Z,94.88
2023-03-31T22:30:09.693Z,95.18
2023-03-31T22:32:36.093Z,94.21
2023-03-31T22:35:02.459Z,94.35
2023-03-31T22:37:28.814Z,92.90
2023-03-31T22:39:55.184Z,92.74
2023-03-31T22:42:21.602Z,92.21
2023-03-31T22:44:47.996Z,92.46
2023-03-31T22:47:14.350Z,92.44
2023-03-31T22:49:40.744Z,91.97
2023-03-31T22:52:07.141Z,91.82
2023-03-31T22:54:33.531Z,90.50
2023-03-31T22:56:59.888Z,92.71
2023-03-31T22:59:26.329Z,89.94
2023-03-31T23:01:53.143Z,90.40
2023-03-31T23:04:21.172Z,91.43
2023-03-31T23:06:47.610Z,89.50
2023-03-31T23:09:14.008Z,90.85
2023-03-31T23:11:40.719Z,90.77
2023-03-31T23:14:07.525Z,89.78
2023-03-31T23:16:34.124Z,90.67
2023-03-31T23:19:01.203Z,90.54
2023-03-31T23:21:28.507Z,89.55
2023-03-31T23:23:57.396Z,89.12
2023-03-31T23:26:25.445Z,90.68
2023-03-31T23:28:54.036Z,90.53
2023-03-31T23:31:23.549Z,91.26
2023-03-31T23:33:50.315Z,88.77
2023-03-31T23:36:18.277Z,88.68
2023-03-31T23:38:45.448Z,88.74
2023-03-31T23:41:12.309Z,89.90
2023-03-31T23:43:39.266Z,89.81
2023-03-31T23:46:07.104Z,89.86
2023-03-31T23:48:35.215Z,90.64
2023-03-31T23:51:02.133Z,91.19
2023-03-31T23:53:29.316Z,91.71
2023-03-31T23:55:58.267Z,91.98
2023-03-31T23:58:26.133Z,90.26
